sensor_id;sensor_type;location;lat;lon;timestamp;temperature;humidity
18898;DHT22;9581;49.484;8.556;2024-03-02T00:00:58;7.10;99.90
18898;DHT22;9581;49.484;8.556;2024-03-02T00:03:24;7.10;99.90
18898;DHT22;9581;49.484;8.556;2024-03-02T00:05:51;7.10;99.90
18898;DHT22;9581;49.484;8.556;2024-03-02T00:08:23;7.10;99.90
18898;DHT22;9581;49.484;8.556;2024-03-02T00:10:50;7.10;99.90
18898;DHT22;9581;49.484;8.556;2024-03-02T00:13:20;7.00;99.90
18898;DHT22;9581;49.484;8.556;2024-03-02T00:15:51;7.10;99.90
18898;DHT22;9581;49.484;8.556;2024-03-02T00:18:21;7.10;99.90
18898;DHT22;9581;49.484;8.556;2024-03-02T00:20:48;7.10;99.90
18898;DHT22;9581;49.484;8.556;2024-03-02T00:23:16;7.10;99.90
18898;DHT22;9581;49.484;8.556;2024-03-02T00:25:44;7.10;99.90
18898;DHT22;9581;49.484;8.556;2024-03-02T00:28:16;7.10;99.90
18898;DHT22;9581;49.484;8.556;2024-03-02T00:30:56;7.10;99.90
18898;DHT22;9581;49.484;8.556;2024-03-02T00:33:27;7.10;99.90
18898;DHT22;9581;49.484;8.556;2024-03-02T00:35:54;7.10;99.90
18898;DHT22;9581;49.484;8.556;2024-03-02T00:38:21;7.10;99.90
18898;DHT22;9581;49.484;8.556;2024-03-02T00:40:48;7.00;99.90
18898;DHT22;9581;49.484;8.556;2024-03-02T00:43:42;7.10;99.90
18898;DHT22;9581;49.484;8.556;2024-03-02T00:46:11;7.00;99.90
18898;DHT22;9581;49.484;8.556;2024-03-02T00:48:48;7.00;99.90
18898;DHT22;9581;49.484;8.556;2024-03-02T00:51:15;7.00;99.90
18898;DHT22;9581;49.484;8.556;2024-03-02T00:53:41;7.00;99.90
18898;DHT22;9581;49.484;8.556;2024-03-02T00:56:10;7.00;99.90
18898;DHT22;9581;49.484;8.556;2024-03-02T00:58:37;7.10;99.90
18898;DHT22;9581;49.484;8.556;2024-03-02T01:01:04;7.00;99.90
18898;DHT22;9581;49.484;8.556;2024-03-02T01:03:31;7.00;99.90
18898;DHT22;9581;49.484;8.556;2024-03-02T01:06:00;6.90;99.90
18898;DHT22;9581;49.484;8.556;2024-03-02T01:08:26;7.00;99.90
18898;DHT22;9581;49.484;8.556;2024-03-02T01:10:53;6.90;99.90
18898;DHT22;9581;49.484;8.556;2024-03-02T01:13:21;7.10;99.90
18898;DHT22;9581;49.484;8.556;2024-03-02T01:15:48;7.10;99.90
18898;DHT22;9581;49.484;8.556;2024-03-02T01:18:15;7.10;99.90
18898;DHT22;9581;49.484;8.556;2024-03-02T01:20:42;6.80;99.90
18898;DHT22;9581;49.484;8.556;2024-03-02T01:23:10;6.80;99.90
18898;DHT22;9581;49.484;8.556;2024-03-02T01:25:36;6.80;99.90
18898;DHT22;9581;49.484;8.556;2024-03-02T01:28:04;6.80;99.90
18898;DHT22;9581;49.484;8.556;2024-03-02T01:30:31;6.70;99.90
18898;DHT22;9581;49.484;8.556;2024-03-02T01:32:57;6.70;99.90
18898;DHT22;9581;49.484;8.556;2024-03-02T01:35:25;6.60;99.90
18898;DHT22;9581;49.484;8.556;2024-03-02T01:37:53;6.60;99.90
18898;DHT22;9581;49.484;8.556;2024-03-02T01:40:21;6.70;99.90
18898;DHT22;9581;49.484;8.556;2024-03-02T01:42:52;6.60;99.90
18898;DHT22;9581;49.484;8.556;2024-03-02T01:45:19;6.70;99.90
18898;DHT22;9581;49.484;8.556;2024-03-02T01:47:46;6.70;99.90
18898;DHT22;9581;49.484;8.556;2024-03-02T01:50:13;6.70;99.90
18898;DHT22;9581;49.484;8.556;2024-03-02T01:52:40;6.80;99.90
18898;DHT22;9581;49.484;8.556;2024-03-02T01:55:08;6.70;99.90
18898;DHT22;9581;49.484;8.556;2024-03-02T01:57:36;6.70;99.90
18898;DHT22;9581;49.484;8.556;2024-03-02T02:00:04;6.70;99.90
18898;DHT22;9581;49.484;8.556;2024-03-02T02:02:31;6.70;99.90
18898;DHT22;9581;49.484;8.556;2024-03-02T02:04:58;6.70;99.90
18898;DHT22;9581;49.484;8.556;2024-03-02T02:07:24;6.70;99.90
18898;DHT22;9581;49.484;8.556;2024-03-02T02:09:51;6.70;99.90
18898;DHT22;9581;49.484;8.556;2024-03-02T02:12:18;6.70;99.90
18898;DHT22;9581;49.484;8.556;2024-03-02T02:14:48;6.60;99.90
18898;DHT22;9581;49.484;8.556;2024-03-02T02:17:15;6.60;99.90
18898;DHT22;9581;49.484;8.556;2024-03-02T02:19:42;6.70;99.90
18898;DHT22;9581;49.484;8.556;2024-03-02T02:22:10;6.70;99.90
18898;DHT22;9581;49.484;8.556;2024-03-02T02:24:39;6.70;99.90
18898;DHT22;9581;49.484;8.556;2024-03-02T02:27:06;6.70;99.90
18898;DHT22;9581;49.484;8.556;2024-03-02T02:29:33;6.60;99.90
18898;DHT22;9581;49.484;8.556;2024-03-02T02:32:00;6.70;99.90
18898;DHT22;9581;49.484;8.556;2024-03-02T02:34:27;6.60;99.90
18898;DHT22;9581;49.484;8.556;2024-03-02T02:36:53;6.60;99.90
18898;DHT22;9581;49.484;8.556;2024-03-02T02:39:22;6.50;99.90
18898;DHT22;9581;49.484;8.556;2024-03-02T02:41:49;6.60;99.90
18898;DHT22;9581;49.484;8.556;2024-03-02T02:44:16;6.50;99.90
18898;DHT22;9581;49.484;8.556;2024-03-02T02:46:42;6.50;99.90
18898;DHT22;9581;49.484;8.556;2024-03-02T02:49:09;6.60;99.90
18898;DHT22;9581;49.484;8.556;2024-03-02T02:51:36;6.50;99.90
18898;DHT22;9581;49.484;8.556;2024-03-02T02:54:02;6.50;99.90
18898;DHT22;9581;49.484;8.556;2024-03-02T02:56:30;6.60;99.90
18898;DHT22;9581;49.484;8.556;2024-03-02T02:58:57;6.70;99.90
18898;DHT22;9581;49.484;8.556;2024-03-02T03:01:24;6.70;99.90
18898;DHT22;9581;49.484;8.556;2024-03-02T03:03:51;6.70;99.90
18898;DHT22;9581;49.484;8.556;2024-03-02T03:06:17;6.70;99.90
18898;DHT22;9581;49.484;8.556;2024-03-02T03:08:44;6.70;99.90
18898;DHT22;9581;49.484;8.556;2024-03-02T03:11:11;6.60;99.90
18898;DHT22;9581;49.484;8.556;2024-03-02T03:13:39;6.70;99.90
18898;DHT22;9581;49.484;8.556;2024-03-02T03:16:06;6.60;99.90
18898;DHT22;9581;49.484;8.556;2024-03-02T03:18:32;6.70;99.90
18898;DHT22;9581;49.484;8.556;2024-03-02T03:20:59;6.60;99.90
18898;DHT22;9581;49.484;8.556;2024-03-02T03:23:26;6.50;99.90
18898;DHT22;9581;49.484;8.556;2024-03-02T03:25:52;6.40;99.90
18898;DHT22;9581;49.484;8.556;2024-03-02T03:28:19;6.40;99.90
18898;DHT22;9581;49.484;8.556;2024-03-02T03:30:47;6.30;99.90
18898;DHT22;9581;49.484;8.556;2024-03-02T03:33:14;6.30;99.90
18898;DHT22;9581;49.484;8.556;2024-03-02T03:35:40;6.50;99.90
18898;DHT22;9581;49.484;8.556;2024-03-02T03:38:07;6.50;99.90
18898;DHT22;9581;49.484;8.556;2024-03-02T03:40:34;6.30;99.90
18898;DHT22;9581;49.484;8.556;2024-03-02T03:43:00;6.20;99.90
18898;DHT22;9581;49.484;8.556;2024-03-02T03:45:27;6.20;99.90
18898;DHT22;9581;49.484;8.556;2024-03-02T03:47:57;6.10;99.90
18898;DHT22;9581;49.484;8.556;2024-03-02T03:50:24;6.30;99.90
18898;DHT22;9581;49.484;8.556;2024-03-02T03:52:50;6.20;99.90
18898;DHT22;9581;49.484;8.556;2024-03-02T03:55:17;6.10;99.90
18898;DHT22;9581;49.484;8.556;2024-03-02T03:57:44;6.10;99.90
18898;DHT22;9581;49.484;8.556;2024-03-02T04:00:12;6.00;99.90
18898;DHT22;9581;49.484;8.556;2024-03-02T04:02:38;6.20;99.90
18898;DHT22;9581;49.484;8.556;2024-03-02T04:05:07;6.40;99.90
18898;DHT22;9581;49.484;8.556;2024-03-02T04:07:36;6.50;99.90
18898;DHT22;9581;49.484;8.556;2024-03-02T04:10:07;6.60;99.90
18898;DHT22;9581;49.484;8.556;2024-03-02T04:12:35;6.30;99.90
18898;DHT22;9581;49.484;8.556;2024-03-02T04:15:02;6.30;99.90
18898;DHT22;9581;49.484;8.556;2024-03-02T04:17:30;6.20;99.90
18898;DHT22;9581;49.484;8.556;2024-03-02T04:19:57;6.10;99.90
18898;DHT22;9581;49.484;8.556;2024-03-02T04:22:25;6.30;99.90
18898;DHT22;9581;49.484;8.556;2024-03-02T04:24:52;6.30;99.90
18898;DHT22;9581;49.484;8.556;2024-03-02T04:27:19;6.30;99.90
18898;DHT22;9581;49.484;8.556;2024-03-02T04:29:46;6.50;99.90
18898;DHT22;9581;49.484;8.556;2024-03-02T04:32:12;6.60;99.90
18898;DHT22;9581;49.484;8.556;2024-03-02T04:34:39;6.70;99.90
18898;DHT22;9581;49.484;8.556;2024-03-02T04:37:06;6.80;99.90
18898;DHT22;9581;49.484;8.556;2024-03-02T04:39:35;6.70;99.90
18898;DHT22;9581;49.484;8.556;2024-03-02T04:42:02;6.80;99.90
18898;DHT22;9581;49.484;8.556;2024-03-02T04:44:29;6.80;99.90
18898;DHT22;9581;49.484;8.556;2024-03-02T04:46:56;6.70;99.90
18898;DHT22;9581;49.484;8.556;2024-03-02T04:49:23;6.70;99.90
18898;DHT22;9581;49.484;8.556;2024-03-02T04:51:50;6.60;99.90
18898;DHT22;9581;49.484;8.556;2024-03-02T04:54:16;6.70;99.90
18898;DHT22;9581;49.484;8.556;2024-03-02T04:56:44;6.60;99.90
18898;DHT22;9581;49.484;8.556;2024-03-02T04:59:15;6.60;99.90
18898;DHT22;9581;49.484;8.556;2024-03-02T05:01:42;6.50;99.90
18898;DHT22;9581;49.484;8.556;2024-03-02T05:04:09;6.40;99.90
18898;DHT22;9581;49.484;8.556;2024-03-02T05:06:37;6.40;99.90
18898;DHT22;9581;49.484;8.556;2024-03-02T05:09:04;6.30;99.90
18898;DHT22;9581;49.484;8.556;2024-03-02T05:11:31;6.30;99.90
18898;DHT22;9581;49.484;8.556;2024-03-02T05:14:20;6.30;99.90
18898;DHT22;9581;49.484;8.556;2024-03-02T05:16:46;6.30;99.90
18898;DHT22;9581;49.484;8.556;2024-03-02T05:19:13;6.30;99.90
18898;DHT22;9581;49.484;8.556;2024-03-02T05:21:39;6.40;99.90
18898;DHT22;9581;49.484;8.556;2024-03-02T05:24:06;6.30;99.90
18898;DHT22;9581;49.484;8.556;2024-03-02T05:26:33;6.30;99.90
18898;DHT22;9581;49.484;8.556;2024-03-02T05:29:00;6.30;99.90
18898;DHT22;9581;49.484;8.556;2024-03-02T05:31:28;6.40;99.90
18898;DHT22;9581;49.484;8.556;2024-03-02T05:33:54;6.20;99.90
18898;DHT22;9581;49.484;8.556;2024-03-02T05:36:21;5.90;99.90
18898;DHT22;9581;49.484;8.556;2024-03-02T05:38:48;5.70;99.90
18898;DHT22;9581;49.484;8.556;2024-03-02T05:41:14;5.60;99.90
18898;DHT22;9581;49.484;8.556;2024-03-02T05:43:41;5.60;99.90
18898;DHT22;9581;49.484;8.556;2024-03-02T05:46:08;5.40;99.90
18898;DHT22;9581;49.484;8.556;2024-03-02T05:48:36;5.40;99.90
18898;DHT22;9581;49.484;8.556;2024-03-02T05:51:03;5.60;99.90
18898;DHT22;9581;49.484;8.556;2024-03-02T05:53:30;5.70;99.90
18898;DHT22;9581;49.484;8.556;2024-03-02T05:55:56;5.90;99.90
18898;DHT22;9581;49.484;8.556;2024-03-02T05:58:23;6.00;99.90
18898;DHT22;9581;49.484;8.556;2024-03-02T06:01:03;5.60;99.90
18898;DHT22;9581;49.484;8.556;2024-03-02T06:03:30;5.50;99.90
18898;DHT22;9581;49.484;8.556;2024-03-02T06:05:58;5.40;99.90
18898;DHT22;9581;49.484;8.556;2024-03-02T06:08:25;5.50;99.90
18898;DHT22;9581;49.484;8.556;2024-03-02T06:10:52;5.50;99.90
18898;DHT22;9581;49.484;8.556;2024-03-02T06:13:18;5.80;99.90
18898;DHT22;9581;49.484;8.556;2024-03-02T06:15:45;5.80;99.90
18898;DHT22;9581;49.484;8.556;2024-03-02T06:18:12;5.90;99.90
18898;DHT22;9581;49.484;8.556;2024-03-02T06:20:38;5.90;99.90
18898;DHT22;9581;49.484;8.556;2024-03-02T06:23:06;5.70;99.90
18898;DHT22;9581;49.484;8.556;2024-03-02T06:25:33;5.90;99.90
18898;DHT22;9581;49.484;8.556;2024-03-02T06:27:59;6.00;99.90
18898;DHT22;9581;49.484;8.556;2024-03-02T06:30:26;5.90;99.90
18898;DHT22;9581;49.484;8.556;2024-03-02T06:32:53;5.80;99.90
18898;DHT22;9581;49.484;8.556;2024-03-02T06:35:19;5.60;99.90
18898;DHT22;9581;49.484;8.556;2024-03-02T06:37:46;5.70;99.90
18898;DHT22;9581;49.484;8.556;2024-03-02T06:40:14;5.90;99.90
18898;DHT22;9581;49.484;8.556;2024-03-02T06:42:41;5.90;99.90
18898;DHT22;9581;49.484;8.556;2024-03-02T06:45:08;5.80;99.90
18898;DHT22;9581;49.484;8.556;2024-03-02T06:47:34;5.90;99.90
18898;DHT22;9581;49.484;8.556;2024-03-02T06:50:01;6.00;99.90
18898;DHT22;9581;49.484;8.556;2024-03-02T06:52:28;6.20;99.90
18898;DHT22;9581;49.484;8.556;2024-03-02T06:54:54;6.30;99.90
18898;DHT22;9581;49.484;8.556;2024-03-02T06:57:22;6.40;99.90
18898;DHT22;9581;49.484;8.556;2024-03-02T06:59:50;6.30;99.90
18898;DHT22;9581;49.484;8.556;2024-03-02T07:02:19;6.30;99.90
18898;DHT22;9581;49.484;8.556;2024-03-02T07:04:46;6.00;99.90
18898;DHT22;9581;49.484;8.556;2024-03-02T07:07:12;5.80;99.90
18898;DHT22;9581;49.484;8.556;2024-03-02T07:09:39;5.90;99.90
18898;DHT22;9581;49.484;8.556;2024-03-02T07:12:06;6.20;99.90
18898;DHT22;9581;49.484;8.556;2024-03-02T07:14:34;6.30;99.90
18898;DHT22;9581;49.484;8.556;2024-03-02T07:17:18;6.50;99.90
18898;DHT22;9581;49.484;8.556;2024-03-02T07:19:44;6.60;99.90
18898;DHT22;9581;49.484;8.556;2024-03-02T07:22:11;6.60;99.90
18898;DHT22;9581;49.484;8.556;2024-03-02T07:24:41;6.60;99.90
18898;DHT22;9581;49.484;8.556;2024-03-02T07:27:08;6.60;99.90
18898;DHT22;9581;49.484;8.556;2024-03-02T07:29:36;6.40;99.90
18898;DHT22;9581;49.484;8.556;2024-03-02T07:32:03;6.30;99.90
18898;DHT22;9581;49.484;8.556;2024-03-02T07:34:30;6.40;99.90
18898;DHT22;9581;49.484;8.556;2024-03-02T07:36:57;6.70;99.90
18898;DHT22;9581;49.484;8.556;2024-03-02T07:39:24;6.50;99.90
18898;DHT22;9581;49.484;8.556;2024-03-02T07:41:51;6.60;99.90
18898;DHT22;9581;49.484;8.556;2024-03-02T07:44:18;6.60;99.90
18898;DHT22;9581;49.484;8.556;2024-03-02T07:46:47;7.00;99.90
18898;DHT22;9581;49.484;8.556;2024-03-02T07:49:15;7.10;99.90
18898;DHT22;9581;49.484;8.556;2024-03-02T07:51:42;7.30;99.90
18898;DHT22;9581;49.484;8.556;2024-03-02T07:54:09;7.60;99.90
18898;DHT22;9581;49.484;8.556;2024-03-02T07:56:36;7.60;99.90
18898;DHT22;9581;49.484;8.556;2024-03-02T07:59:03;7.70;99.90
18898;DHT22;9581;49.484;8.556;2024-03-02T08:01:31;7.70;99.90
18898;DHT22;9581;49.484;8.556;2024-03-02T08:04:01;7.80;99.90
18898;DHT22;9581;49.484;8.556;2024-03-02T08:06:29;7.90;99.90
18898;DHT22;9581;49.484;8.556;2024-03-02T08:08:57;8.00;99.90
18898;DHT22;9581;49.484;8.556;2024-03-02T08:11:24;8.10;99.90
18898;DHT22;9581;49.484;8.556;2024-03-02T08:13:50;8.30;99.90
18898;DHT22;9581;49.484;8.556;2024-03-02T08:16:19;8.50;99.90
18898;DHT22;9581;49.484;8.556;2024-03-02T08:18:46;8.80;99.90
18898;DHT22;9581;49.484;8.556;2024-03-02T08:21:14;9.10;99.90
18898;DHT22;9581;49.484;8.556;2024-03-02T08:23:42;9.40;99.90
18898;DHT22;9581;49.484;8.556;2024-03-02T08:26:09;10.10;99.90
18898;DHT22;9581;49.484;8.556;2024-03-02T08:28:36;10.50;99.90
18898;DHT22;9581;49.484;8.556;2024-03-02T08:31:03;10.90;99.90
18898;DHT22;9581;49.484;8.556;2024-03-02T08:33:29;11.00;99.90
18898;DHT22;9581;49.484;8.556;2024-03-02T08:35:56;10.40;99.90
18898;DHT22;9581;49.484;8.556;2024-03-02T08:38:24;10.70;99.90
18898;DHT22;9581;49.484;8.556;2024-03-02T08:40:51;11.00;99.90
18898;DHT22;9581;49.484;8.556;2024-03-02T08:43:19;10.70;99.90
18898;DHT22;9581;49.484;8.556;2024-03-02T08:45:48;10.60;99.90
18898;DHT22;9581;49.484;8.556;2024-03-02T08:48:16;10.60;99.90
18898;DHT22;9581;49.484;8.556;2024-03-02T08:50:43;10.90;99.90
18898;DHT22;9581;49.484;8.556;2024-03-02T08:53:09;11.20;99.90
18898;DHT22;9581;49.484;8.556;2024-03-02T08:55:37;11.60;99.90
18898;DHT22;9581;49.484;8.556;2024-03-02T08:58:04;11.70;99.90
18898;DHT22;9581;49.484;8.556;2024-03-02T09:00:31;12.60;99.90
18898;DHT22;9581;49.484;8.556;2024-03-02T09:02:58;12.90;99.90
18898;DHT22;9581;49.484;8.556;2024-03-02T09:05:24;13.10;99.90
18898;DHT22;9581;49.484;8.556;2024-03-02T09:07:51;13.80;99.90
18898;DHT22;9581;49.484;8.556;2024-03-02T09:10:18;13.80;99.90
18898;DHT22;9581;49.484;8.556;2024-03-02T09:12:46;13.70;99.90
18898;DHT22;9581;49.484;8.556;2024-03-02T09:15:12;13.90;99.90
18898;DHT22;9581;49.484;8.556;2024-03-02T09:17:39;13.40;99.90
18898;DHT22;9581;49.484;8.556;2024-03-02T09:20:06;13.70;99.90
18898;DHT22;9581;49.484;8.556;2024-03-02T09:22:33;14.00;99.90
18898;DHT22;9581;49.484;8.556;2024-03-02T09:25:00;14.40;99.90
18898;DHT22;9581;49.484;8.556;2024-03-02T09:27:27;13.90;99.90
18898;DHT22;9581;49.484;8.556;2024-03-02T09:29:55;16.60;99.90
18898;DHT22;9581;49.484;8.556;2024-03-02T09:32:21;16.10;99.90
18898;DHT22;9581;49.484;8.556;2024-03-02T09:34:49;15.30;99.90
18898;DHT22;9581;49.484;8.556;2024-03-02T09:37:15;15.20;99.90
18898;DHT22;9581;49.484;8.556;2024-03-02T09:39:43;15.10;99.90
18898;DHT22;9581;49.484;8.556;2024-03-02T09:42:10;15.20;99.90
18898;DHT22;9581;49.484;8.556;2024-03-02T09:44:37;15.50;99.90
18898;DHT22;9581;49.484;8.556;2024-03-02T09:47:06;16.50;99.90
18898;DHT22;9581;49.484;8.556;2024-03-02T09:49:33;16.30;99.90
18898;DHT22;9581;49.484;8.556;2024-03-02T09:52:01;15.80;99.90
18898;DHT22;9581;49.484;8.556;2024-03-02T09:54:29;15.90;99.90
18898;DHT22;9581;49.484;8.556;2024-03-02T09:56:56;18.00;99.90
18898;DHT22;9581;49.484;8.556;2024-03-02T09:59:23;19.20;99.90
18898;DHT22;9581;49.484;8.556;2024-03-02T10:01:56;20.00;99.90
18898;DHT22;9581;49.484;8.556;2024-03-02T10:04:25;19.70;99.90
18898;DHT22;9581;49.484;8.556;2024-03-02T10:07:09;18.60;99.80
18898;DHT22;9581;49.484;8.556;2024-03-02T10:09:36;20.20;99.90
18898;DHT22;9581;49.484;8.556;2024-03-02T10:12:04;21.00;98.60
18898;DHT22;9581;49.484;8.556;2024-03-02T10:14:31;21.30;96.30
18898;DHT22;9581;49.484;8.556;2024-03-02T10:17:02;22.50;96.20
18898;DHT22;9581;49.484;8.556;2024-03-02T10:19:30;23.40;93.40
18898;DHT22;9581;49.484;8.556;2024-03-02T10:21:59;25.00;92.60
18898;DHT22;9581;49.484;8.556;2024-03-02T10:24:25;26.10;90.80
18898;DHT22;9581;49.484;8.556;2024-03-02T10:26:52;26.30;85.80
18898;DHT22;9581;49.484;8.556;2024-03-02T10:29:19;26.90;82.90
18898;DHT22;9581;49.484;8.556;2024-03-02T10:31:47;26.90;79.30
18898;DHT22;9581;49.484;8.556;2024-03-02T10:34:13;27.00;79.40
18898;DHT22;9581;49.484;8.556;2024-03-02T10:36:43;26.60;75.30
18898;DHT22;9581;49.484;8.556;2024-03-02T10:39:12;26.10;72.70
18898;DHT22;9581;49.484;8.556;2024-03-02T10:41:40;26.50;76.20
18898;DHT22;9581;49.484;8.556;2024-03-02T10:44:08;27.70;72.80
18898;DHT22;9581;49.484;8.556;2024-03-02T10:46:36;29.60;67.40
18898;DHT22;9581;49.484;8.556;2024-03-02T10:49:04;26.20;65.30
18898;DHT22;9581;49.484;8.556;2024-03-02T10:51:32;24.40;66.40
18898;DHT22;9581;49.484;8.556;2024-03-02T10:54:01;26.60;67.80
18898;DHT22;9581;49.484;8.556;2024-03-02T10:56:30;28.40;65.40
18898;DHT22;9581;49.484;8.556;2024-03-02T10:59:02;28.40;62.10
18898;DHT22;9581;49.484;8.556;2024-03-02T11:01:30;27.20;62.90
18898;DHT22;9581;49.484;8.556;2024-03-02T11:03:58;27.50;60.50
18898;DHT22;9581;49.484;8.556;2024-03-02T11:06:26;27.70;59.60
18898;DHT22;9581;49.484;8.556;2024-03-02T11:08:55;25.30;59.90
18898;DHT22;9581;49.484;8.556;2024-03-02T11:11:30;25.00;62.40
18898;DHT22;9581;49.484;8.556;2024-03-02T11:14:01;26.70;62.50
18898;DHT22;9581;49.484;8.556;2024-03-02T11:16:34;24.40;60.40
18898;DHT22;9581;49.484;8.556;2024-03-02T11:19:04;24.50;62.50
18898;DHT22;9581;49.484;8.556;2024-03-02T11:21:32;26.40;62.60
18898;DHT22;9581;49.484;8.556;2024-03-02T11:23:59;24.40;57.70
18898;DHT22;9581;49.484;8.556;2024-03-02T11:26:29;23.10;59.60
18898;DHT22;9581;49.484;8.556;2024-03-02T11:29:03;22.90;59.10
18898;DHT22;9581;49.484;8.556;2024-03-02T11:31:59;25.70;60.60
18898;DHT22;9581;49.484;8.556;2024-03-02T11:34:30;27.60;58.70
18898;DHT22;9581;49.484;8.556;2024-03-02T11:36:56;28.20;56.00
18898;DHT22;9581;49.484;8.556;2024-03-02T11:39:24;24.90;55.80
18898;DHT22;9581;49.484;8.556;2024-03-02T11:41:52;26.90;55.70
18898;DHT22;9581;49.484;8.556;2024-03-02T11:44:19;28.10;57.00
18898;DHT22;9581;49.484;8.556;2024-03-02T11:46:51;26.60;54.50
18898;DHT22;9581;49.484;8.556;2024-03-02T11:49:36;24.20;54.70
18898;DHT22;9581;49.484;8.556;2024-03-02T11:52:05;26.20;56.40
18898;DHT22;9581;49.484;8.556;2024-03-02T11:54:32;25.30;56.40
18898;DHT22;9581;49.484;8.556;2024-03-02T11:57:01;24.90;56.30
18898;DHT22;9581;49.484;8.556;2024-03-02T11:59:29;25.80;55.60
18898;DHT22;9581;49.484;8.556;2024-03-02T12:01:55;26.80;56.10
18898;DHT22;9581;49.484;8.556;2024-03-02T12:04:23;25.80;55.10
18898;DHT22;9581;49.484;8.556;2024-03-02T12:06:54;24.20;55.70
18898;DHT22;9581;49.484;8.556;2024-03-02T12:09:21;25.00;56.00
18898;DHT22;9581;49.484;8.556;2024-03-02T12:11:48;26.60;56.50
18898;DHT22;9581;49.484;8.556;2024-03-02T12:14:16;27.20;55.70
18898;DHT22;9581;49.484;8.556;2024-03-02T12:16:44;26.70;53.20
18898;DHT22;9581;49.484;8.556;2024-03-02T12:19:10;26.40;55.60
18898;DHT22;9581;49.484;8.556;2024-03-02T12:21:36;27.50;53.10
18898;DHT22;9581;49.484;8.556;2024-03-02T12:24:04;27.70;51.30
18898;DHT22;9581;49.484;8.556;2024-03-02T12:26:31;28.00;50.70
18898;DHT22;9581;49.484;8.556;2024-03-02T12:28:58;28.60;50.40
18898;DHT22;9581;49.484;8.556;2024-03-02T12:31:26;27.00;50.40
18898;DHT22;9581;49.484;8.556;2024-03-02T12:33:54;27.90;50.40
18898;DHT22;9581;49.484;8.556;2024-03-02T12:36:21;28.50;50.20
18898;DHT22;9581;49.484;8.556;2024-03-02T12:38:48;26.70;49.10
18898;DHT22;9581;49.484;8.556;2024-03-02T12:41:16;27.80;52.20
18898;DHT22;9581;49.484;8.556;2024-03-02T12:43:43;25.90;50.20
18898;DHT22;9581;49.484;8.556;2024-03-02T12:46:11;22.90;50.50
18898;DHT22;9581;49.484;8.556;2024-03-02T12:48:39;22.40;51.40
18898;DHT22;9581;49.484;8.556;2024-03-02T12:51:07;22.50;53.30
18898;DHT22;9581;49.484;8.556;2024-03-02T12:53:34;21.60;51.90
18898;DHT22;9581;49.484;8.556;2024-03-02T12:56:01;20.70;54.60
18898;DHT22;9581;49.484;8.556;2024-03-02T12:58:29;21.30;54.30
18898;DHT22;9581;49.484;8.556;2024-03-02T13:01:07;20.60;54.00
18898;DHT22;9581;49.484;8.556;2024-03-02T13:03:35;20.70;54.60
18898;DHT22;9581;49.484;8.556;2024-03-02T13:06:04;19.60;55.60
18898;DHT22;9581;49.484;8.556;2024-03-02T13:08:31;19.60;57.80
18898;DHT22;9581;49.484;8.556;2024-03-02T13:10:59;19.50;57.30
18898;DHT22;9581;49.484;8.556;2024-03-02T13:13:25;20.00;57.60
18898;DHT22;9581;49.484;8.556;2024-03-02T13:15:55;20.30;58.10
18898;DHT22;9581;49.484;8.556;2024-03-02T13:18:22;20.60;57.50
18898;DHT22;9581;49.484;8.556;2024-03-02T13:20:49;19.90;56.90
18898;DHT22;9581;49.484;8.556;2024-03-02T13:23:17;20.50;56.20
18898;DHT22;9581;49.484;8.556;2024-03-02T13:25:43;20.00;57.30
18898;DHT22;9581;49.484;8.556;2024-03-02T13:28:13;20.30;58.40
18898;DHT22;9581;49.484;8.556;2024-03-02T13:30:39;20.90;58.20
18898;DHT22;9581;49.484;8.556;2024-03-02T13:33:06;20.60;58.10
18898;DHT22;9581;49.484;8.556;2024-03-02T13:35:33;20.00;58.30
18898;DHT22;9581;49.484;8.556;2024-03-02T13:37:59;19.40;59.50
18898;DHT22;9581;49.484;8.556;2024-03-02T13:40:27;18.80;60.40
18898;DHT22;9581;49.484;8.556;2024-03-02T13:42:56;18.60;61.50
18898;DHT22;9581;49.484;8.556;2024-03-02T13:45:22;18.80;64.20
18898;DHT22;9581;49.484;8.556;2024-03-02T13:47:49;18.70;62.40
18898;DHT22;9581;49.484;8.556;2024-03-02T13:50:17;18.50;63.90
18898;DHT22;9581;49.484;8.556;2024-03-02T13:52:44;18.60;64.40
18898;DHT22;9581;49.484;8.556;2024-03-02T13:55:10;18.80;65.10
18898;DHT22;9581;49.484;8.556;2024-03-02T13:57:39;18.80;64.20
18898;DHT22;9581;49.484;8.556;2024-03-02T14:00:06;17.80;64.70
18898;DHT22;9581;49.484;8.556;2024-03-02T14:02:36;17.60;65.60
18898;DHT22;9581;49.484;8.556;2024-03-02T14:05:03;17.60;65.90
18898;DHT22;9581;49.484;8.556;2024-03-02T14:07:30;17.60;67.70
18898;DHT22;9581;49.484;8.556;2024-03-02T14:09:56;18.10;67.20
18898;DHT22;9581;49.484;8.556;2024-03-02T14:12:23;18.40;67.90
18898;DHT22;9581;49.484;8.556;2024-03-02T14:14:51;17.90;65.70
18898;DHT22;9581;49.484;8.556;2024-03-02T14:17:21;18.10;67.30
18898;DHT22;9581;49.484;8.556;2024-03-02T14:19:47;18.00;67.30
18898;DHT22;9581;49.484;8.556;2024-03-02T14:22:14;17.80;66.60
18898;DHT22;9581;49.484;8.556;2024-03-02T14:24:43;18.00;67.80
18898;DHT22;9581;49.484;8.556;2024-03-02T14:27:09;18.10;67.90
18898;DHT22;9581;49.484;8.556;2024-03-02T14:29:36;17.60;65.90
18898;DHT22;9581;49.484;8.556;2024-03-02T14:32:06;17.50;67.20
18898;DHT22;9581;49.484;8.556;2024-03-02T14:34:33;17.90;68.50
18898;DHT22;9581;49.484;8.556;2024-03-02T14:37:00;17.40;66.60
18898;DHT22;9581;49.484;8.556;2024-03-02T14:39:28;17.40;66.40
18898;DHT22;9581;49.484;8.556;2024-03-02T14:41:55;17.80;67.90
18898;DHT22;9581;49.484;8.556;2024-03-02T14:44:21;18.00;67.90
18898;DHT22;9581;49.484;8.556;2024-03-02T14:46:48;17.60;65.60
18898;DHT22;9581;49.484;8.556;2024-03-02T14:49:17;17.50;66.60
18898;DHT22;9581;49.484;8.556;2024-03-02T14:51:44;17.50;66.50
18898;DHT22;9581;49.484;8.556;2024-03-02T14:54:11;17.90;67.80
18898;DHT22;9581;49.484;8.556;2024-03-02T14:56:37;18.10;67.30
18898;DHT22;9581;49.484;8.556;2024-03-02T14:59:04;18.50;67.80
18898;DHT22;9581;49.484;8.556;2024-03-02T15:01:31;18.50;66.90
18898;DHT22;9581;49.484;8.556;2024-03-02T15:03:57;18.20;68.00
18898;DHT22;9581;49.484;8.556;2024-03-02T15:06:25;18.50;68.40
18898;DHT22;9581;49.484;8.556;2024-03-02T15:08:52;18.50;67.70
18898;DHT22;9581;49.484;8.556;2024-03-02T15:11:20;18.50;67.40
18898;DHT22;9581;49.484;8.556;2024-03-02T15:13:47;18.30;67.50
18898;DHT22;9581;49.484;8.556;2024-03-02T15:16:14;18.20;67.60
18898;DHT22;9581;49.484;8.556;2024-03-02T15:18:41;18.10;69.20
18898;DHT22;9581;49.484;8.556;2024-03-02T15:21:07;17.70;68.70
18898;DHT22;9581;49.484;8.556;2024-03-02T15:23:35;17.40;68.40
18898;DHT22;9581;49.484;8.556;2024-03-02T15:26:02;17.40;70.60
18898;DHT22;9581;49.484;8.556;2024-03-02T15:28:29;17.10;70.10
18898;DHT22;9581;49.484;8.556;2024-03-02T15:30:55;16.90;69.70
18898;DHT22;9581;49.484;8.556;2024-03-02T15:33:22;16.90;71.60
18898;DHT22;9581;49.484;8.556;2024-03-02T15:35:50;17.00;72.10
18898;DHT22;9581;49.484;8.556;2024-03-02T15:38:17;16.60;72.40
18898;DHT22;9581;49.484;8.556;2024-03-02T15:40:45;16.70;73.40
18898;DHT22;9581;49.484;8.556;2024-03-02T15:43:12;16.50;72.30
18898;DHT22;9581;49.484;8.556;2024-03-02T15:45:38;16.40;73.10
18898;DHT22;9581;49.484;8.556;2024-03-02T15:48:06;16.30;73.60
18898;DHT22;9581;49.484;8.556;2024-03-02T15:50:32;16.40;74.70
18898;DHT22;9581;49.484;8.556;2024-03-02T15:53:01;16.10;74.90
18898;DHT22;9581;49.484;8.556;2024-03-02T15:55:31;16.20;74.60
18898;DHT22;9581;49.484;8.556;2024-03-02T15:57:59;16.20;75.00